Terminal Aerodrome Forecast
Issued by NWS Topeka, KS

Home | Current Version | Previous Version | Graphics & Text | Print | Product List | Glossary On
Versions: 1 2 3 4 5 6 7 8 9 10 11 12 13 14 15 16 17 18 19 20 21 22 23
121
FTUS43 KTOP 271138
TAFTOP
TAF
KTOP 271138Z 2712/2812 36006KT 6SM -RA BR OVC007
      TEMPO 2712/2713 3SM RA BR OVC015
     FM271600 36009KT P6SM OVC015
     FM272200 01007KT P6SM BKN035
     FM280900 06003KT 5SM BR SCT150=

USA.gov is the U.S. government's official web portal to all federal, state and local government web resources and services.